sensor_id;sensor_type;location;lat;lon;timestamp;temperature;humidity
7666;DHT22;3875;46.562;4.898;2022-08-18T00:00:48;19.80;87.20
7666;DHT22;3875;46.562;4.898;2022-08-18T00:03:14;19.80;87.00
7666;DHT22;3875;46.562;4.898;2022-08-18T00:05:40;19.80;87.30
7666;DHT22;3875;46.562;4.898;2022-08-18T00:08:06;19.80;87.50
7666;DHT22;3875;46.562;4.898;2022-08-18T00:10:32;19.70;87.70
7666;DHT22;3875;46.562;4.898;2022-08-18T00:12:58;19.60;88.00
7666;DHT22;3875;46.562;4.898;2022-08-18T00:15:24;19.50;88.50
7666;DHT22;3875;46.562;4.898;2022-08-18T00:17:50;19.40;89.00
7666;DHT22;3875;46.562;4.898;2022-08-18T00:20:20;19.30;89.40
7666;DHT22;3875;46.562;4.898;2022-08-18T00:22:46;19.30;89.10
7666;DHT22;3875;46.562;4.898;2022-08-18T00:25:14;19.40;88.90
7666;DHT22;3875;46.562;4.898;2022-08-18T00:27:41;19.50;88.50
7666;DHT22;3875;46.562;4.898;2022-08-18T00:30:10;19.60;88.10
7666;DHT22;3875;46.562;4.898;2022-08-18T00:32:42;19.70;87.80
7666;DHT22;3875;46.562;4.898;2022-08-18T00:35:20;19.70;87.40
7666;DHT22;3875;46.562;4.898;2022-08-18T00:37:47;19.80;87.20
7666;DHT22;3875;46.562;4.898;2022-08-18T00:40:17;19.80;87.10
7666;DHT22;3875;46.562;4.898;2022-08-18T00:42:47;19.70;87.20
7666;DHT22;3875;46.562;4.898;2022-08-18T00:45:28;19.70;87.10
7666;DHT22;3875;46.562;4.898;2022-08-18T00:47:54;19.60;87.70
7666;DHT22;3875;46.562;4.898;2022-08-18T00:50:28;19.40;88.60
7666;DHT22;3875;46.562;4.898;2022-08-18T00:53:28;19.30;89.30
7666;DHT22;3875;46.562;4.898;2022-08-18T00:55:59;19.10;89.90
7666;DHT22;3875;46.562;4.898;2022-08-18T00:58:43;19.00;90.20
7666;DHT22;3875;46.562;4.898;2022-08-18T01:01:12;19.00;90.10
7666;DHT22;3875;46.562;4.898;2022-08-18T01:03:39;19.00;90.00
7666;DHT22;3875;46.562;4.898;2022-08-18T01:06:14;19.00;89.90
7666;DHT22;3875;46.562;4.898;2022-08-18T01:08:40;19.00;89.80
7666;DHT22;3875;46.562;4.898;2022-08-18T01:11:07;19.10;89.80
7666;DHT22;3875;46.562;4.898;2022-08-18T01:13:34;19.00;90.10
7666;DHT22;3875;46.562;4.898;2022-08-18T01:16:03;19.00;90.30
7666;DHT22;3875;46.562;4.898;2022-08-18T01:18:49;18.90;90.70
7666;DHT22;3875;46.562;4.898;2022-08-18T01:21:36;18.90;90.60
7666;DHT22;3875;46.562;4.898;2022-08-18T01:24:22;18.90;90.10
7666;DHT22;3875;46.562;4.898;2022-08-18T01:27:10;19.00;89.20
7666;DHT22;3875;46.562;4.898;2022-08-18T01:29:36;19.10;88.10
7666;DHT22;3875;46.562;4.898;2022-08-18T01:32:02;19.30;87.60
7666;DHT22;3875;46.562;4.898;2022-08-18T01:34:28;19.40;86.80
7666;DHT22;3875;46.562;4.898;2022-08-18T01:36:54;19.50;86.50
7666;DHT22;3875;46.562;4.898;2022-08-18T01:39:21;19.60;86.30
7666;DHT22;3875;46.562;4.898;2022-08-18T01:41:47;19.60;86.50
7666;DHT22;3875;46.562;4.898;2022-08-18T01:44:13;19.70;86.50
7666;DHT22;3875;46.562;4.898;2022-08-18T01:46:39;19.70;86.40
7666;DHT22;3875;46.562;4.898;2022-08-18T01:49:07;19.80;86.30
7666;DHT22;3875;46.562;4.898;2022-08-18T01:51:34;19.80;86.10
7666;DHT22;3875;46.562;4.898;2022-08-18T01:54:03;19.80;85.90
7666;DHT22;3875;46.562;4.898;2022-08-18T01:56:29;19.80;85.80
7666;DHT22;3875;46.562;4.898;2022-08-18T01:58:55;19.80;85.80
7666;DHT22;3875;46.562;4.898;2022-08-18T02:01:22;19.80;85.90
7666;DHT22;3875;46.562;4.898;2022-08-18T02:03:53;19.90;85.90
7666;DHT22;3875;46.562;4.898;2022-08-18T02:06:20;19.90;85.70
7666;DHT22;3875;46.562;4.898;2022-08-18T02:08:46;19.90;85.70
7666;DHT22;3875;46.562;4.898;2022-08-18T02:11:13;19.90;85.60
7666;DHT22;3875;46.562;4.898;2022-08-18T02:13:39;19.80;85.50
7666;DHT22;3875;46.562;4.898;2022-08-18T02:16:05;19.80;85.60
7666;DHT22;3875;46.562;4.898;2022-08-18T02:18:34;19.80;85.70
7666;DHT22;3875;46.562;4.898;2022-08-18T02:21:20;19.80;85.60
7666;DHT22;3875;46.562;4.898;2022-08-18T02:23:47;19.90;85.60
7666;DHT22;3875;46.562;4.898;2022-08-18T02:26:15;19.90;85.50
7666;DHT22;3875;46.562;4.898;2022-08-18T02:28:42;19.90;85.40
7666;DHT22;3875;46.562;4.898;2022-08-18T02:31:11;19.90;85.70
7666;DHT22;3875;46.562;4.898;2022-08-18T02:33:37;19.80;85.80
7666;DHT22;3875;46.562;4.898;2022-08-18T02:36:03;19.70;86.10
7666;DHT22;3875;46.562;4.898;2022-08-18T02:38:30;19.70;86.10
7666;DHT22;3875;46.562;4.898;2022-08-18T02:41:01;19.70;86.20
7666;DHT22;3875;46.562;4.898;2022-08-18T02:43:28;19.70;86.10
7666;DHT22;3875;46.562;4.898;2022-08-18T02:45:54;19.70;86.30
7666;DHT22;3875;46.562;4.898;2022-08-18T02:48:20;19.70;86.00
7666;DHT22;3875;46.562;4.898;2022-08-18T02:53:27;19.80;85.60
7666;DHT22;3875;46.562;4.898;2022-08-18T02:55:53;19.80;85.60
7666;DHT22;3875;46.562;4.898;2022-08-18T02:58:19;19.70;86.00
7666;DHT22;3875;46.562;4.898;2022-08-18T03:00:45;19.70;85.90
7666;DHT22;3875;46.562;4.898;2022-08-18T03:03:11;19.70;86.00
7666;DHT22;3875;46.562;4.898;2022-08-18T03:05:38;19.70;86.10
7666;DHT22;3875;46.562;4.898;2022-08-18T03:08:04;19.70;86.30
7666;DHT22;3875;46.562;4.898;2022-08-18T03:10:29;19.70;86.40
7666;DHT22;3875;46.562;4.898;2022-08-18T03:12:55;19.70;86.40
7666;DHT22;3875;46.562;4.898;2022-08-18T03:15:21;19.70;86.50
7666;DHT22;3875;46.562;4.898;2022-08-18T03:17:47;19.70;86.40
7666;DHT22;3875;46.562;4.898;2022-08-18T03:20:13;19.70;86.30
7666;DHT22;3875;46.562;4.898;2022-08-18T03:22:38;19.70;86.30
7666;DHT22;3875;46.562;4.898;2022-08-18T03:25:04;19.70;86.30
7666;DHT22;3875;46.562;4.898;2022-08-18T03:27:30;19.70;86.80
7666;DHT22;3875;46.562;4.898;2022-08-18T03:29:56;19.60;87.10
7666;DHT22;3875;46.562;4.898;2022-08-18T03:32:21;19.60;87.50
7666;DHT22;3875;46.562;4.898;2022-08-18T03:34:47;19.50;87.80
7666;DHT22;3875;46.562;4.898;2022-08-18T03:37:13;19.40;88.70
7666;DHT22;3875;46.562;4.898;2022-08-18T03:39:40;19.30;89.40
7666;DHT22;3875;46.562;4.898;2022-08-18T03:42:07;19.10;90.10
7666;DHT22;3875;46.562;4.898;2022-08-18T03:44:34;19.00;90.30
7666;DHT22;3875;46.562;4.898;2022-08-18T03:47:06;19.10;90.00
7666;DHT22;3875;46.562;4.898;2022-08-18T03:49:32;19.10;90.00
7666;DHT22;3875;46.562;4.898;2022-08-18T03:51:58;19.10;90.20
7666;DHT22;3875;46.562;4.898;2022-08-18T03:54:25;18.90;90.90
7666;DHT22;3875;46.562;4.898;2022-08-18T03:56:51;18.90;91.00
7666;DHT22;3875;46.562;4.898;2022-08-18T03:59:21;18.90;90.60
7666;DHT22;3875;46.562;4.898;2022-08-18T04:01:49;18.90;90.40
7666;DHT22;3875;46.562;4.898;2022-08-18T04:04:18;18.90;90.30
7666;DHT22;3875;46.562;4.898;2022-08-18T04:06:47;18.90;90.10
7666;DHT22;3875;46.562;4.898;2022-08-18T04:09:17;19.00;89.80
7666;DHT22;3875;46.562;4.898;2022-08-18T04:11:43;19.00;89.60
7666;DHT22;3875;46.562;4.898;2022-08-18T04:14:15;19.10;89.40
7666;DHT22;3875;46.562;4.898;2022-08-18T04:16:42;19.10;89.00
7666;DHT22;3875;46.562;4.898;2022-08-18T04:19:08;19.10;88.80
7666;DHT22;3875;46.562;4.898;2022-08-18T04:21:37;19.10;88.90
7666;DHT22;3875;46.562;4.898;2022-08-18T04:24:04;19.10;88.70
7666;DHT22;3875;46.562;4.898;2022-08-18T04:26:37;19.10;88.60
7666;DHT22;3875;46.562;4.898;2022-08-18T04:29:05;19.10;88.40
7666;DHT22;3875;46.562;4.898;2022-08-18T04:31:31;19.10;88.30
7666;DHT22;3875;46.562;4.898;2022-08-18T04:34:00;19.10;88.20
7666;DHT22;3875;46.562;4.898;2022-08-18T04:36:27;19.10;88.20
7666;DHT22;3875;46.562;4.898;2022-08-18T04:38:54;19.10;88.20
7666;DHT22;3875;46.562;4.898;2022-08-18T04:41:20;19.10;88.10
7666;DHT22;3875;46.562;4.898;2022-08-18T04:43:48;19.10;88.20
7666;DHT22;3875;46.562;4.898;2022-08-18T04:46:17;19.10;88.20
7666;DHT22;3875;46.562;4.898;2022-08-18T04:48:42;19.00;88.30
7666;DHT22;3875;46.562;4.898;2022-08-18T04:51:12;19.00;88.20
7666;DHT22;3875;46.562;4.898;2022-08-18T04:53:38;19.10;88.20
7666;DHT22;3875;46.562;4.898;2022-08-18T04:56:35;19.00;88.40
7666;DHT22;3875;46.562;4.898;2022-08-18T04:59:06;19.10;88.40
7666;DHT22;3875;46.562;4.898;2022-08-18T05:01:35;19.10;88.40
7666;DHT22;3875;46.562;4.898;2022-08-18T05:04:03;19.10;88.20
7666;DHT22;3875;46.562;4.898;2022-08-18T05:06:29;19.10;88.30
7666;DHT22;3875;46.562;4.898;2022-08-18T05:08:57;19.10;88.20
7666;DHT22;3875;46.562;4.898;2022-08-18T05:11:26;19.10;88.30
7666;DHT22;3875;46.562;4.898;2022-08-18T05:13:58;19.10;88.10
7666;DHT22;3875;46.562;4.898;2022-08-18T05:16:24;19.20;87.90
7666;DHT22;3875;46.562;4.898;2022-08-18T05:18:51;19.30;87.80
7666;DHT22;3875;46.562;4.898;2022-08-18T05:21:18;19.30;87.70
7666;DHT22;3875;46.562;4.898;2022-08-18T05:23:46;19.40;87.50
7666;DHT22;3875;46.562;4.898;2022-08-18T05:26:13;19.40;87.50
7666;DHT22;3875;46.562;4.898;2022-08-18T05:28:40;19.40;87.60
7666;DHT22;3875;46.562;4.898;2022-08-18T05:31:12;19.50;87.50
7666;DHT22;3875;46.562;4.898;2022-08-18T05:33:38;19.50;87.60
7666;DHT22;3875;46.562;4.898;2022-08-18T05:38:55;19.50;87.70
7666;DHT22;3875;46.562;4.898;2022-08-18T05:41:27;19.50;87.70
7666;DHT22;3875;46.562;4.898;2022-08-18T05:43:56;19.50;87.90
7666;DHT22;3875;46.562;4.898;2022-08-18T05:46:31;19.50;87.90
7666;DHT22;3875;46.562;4.898;2022-08-18T05:48:58;19.50;87.90
7666;DHT22;3875;46.562;4.898;2022-08-18T05:51:30;19.50;87.90
7666;DHT22;3875;46.562;4.898;2022-08-18T05:53:58;19.50;88.00
7666;DHT22;3875;46.562;4.898;2022-08-18T05:56:44;19.50;87.90
7666;DHT22;3875;46.562;4.898;2022-08-18T05:59:25;19.60;87.80
7666;DHT22;3875;46.562;4.898;2022-08-18T06:01:58;19.70;87.80
7666;DHT22;3875;46.562;4.898;2022-08-18T06:04:48;19.70;87.80
7666;DHT22;3875;46.562;4.898;2022-08-18T06:07:18;19.70;87.80
7666;DHT22;3875;46.562;4.898;2022-08-18T06:09:52;19.80;87.50
7666;DHT22;3875;46.562;4.898;2022-08-18T06:23:30;20.00;87.20
7666;DHT22;3875;46.562;4.898;2022-08-18T06:28:58;20.10;87.50
7666;DHT22;3875;46.562;4.898;2022-08-18T06:34:32;20.30;86.90
7666;DHT22;3875;46.562;4.898;2022-08-18T06:37:27;20.40;86.90
7666;DHT22;3875;46.562;4.898;2022-08-18T06:39:54;20.50;86.60
7666;DHT22;3875;46.562;4.898;2022-08-18T06:42:25;20.60;86.40
7666;DHT22;3875;46.562;4.898;2022-08-18T06:45:02;20.60;86.20
7666;DHT22;3875;46.562;4.898;2022-08-18T06:47:47;20.70;86.10
7666;DHT22;3875;46.562;4.898;2022-08-18T06:50:25;20.80;85.90
7666;DHT22;3875;46.562;4.898;2022-08-18T06:53:00;20.80;85.70
7666;DHT22;3875;46.562;4.898;2022-08-18T06:55:39;20.90;85.50
7666;DHT22;3875;46.562;4.898;2022-08-18T06:58:37;20.90;85.40
7666;DHT22;3875;46.562;4.898;2022-08-18T07:01:06;20.90;85.30
7666;DHT22;3875;46.562;4.898;2022-08-18T07:11:28;20.90;85.20
7666;DHT22;3875;46.562;4.898;2022-08-18T07:14:14;21.00;85.20
7666;DHT22;3875;46.562;4.898;2022-08-18T07:16:45;21.10;85.10
7666;DHT22;3875;46.562;4.898;2022-08-18T07:19:14;21.10;84.90
7666;DHT22;3875;46.562;4.898;2022-08-18T07:21:41;21.10;84.80
7666;DHT22;3875;46.562;4.898;2022-08-18T07:30:02;21.30;83.90
7666;DHT22;3875;46.562;4.898;2022-08-18T07:32:52;21.40;83.50
7666;DHT22;3875;46.562;4.898;2022-08-18T07:35:27;21.50;83.40
7666;DHT22;3875;46.562;4.898;2022-08-18T07:38:29;21.50;83.40
7666;DHT22;3875;46.562;4.898;2022-08-18T07:40:57;21.50;83.30
7666;DHT22;3875;46.562;4.898;2022-08-18T07:46:19;21.70;83.30
7666;DHT22;3875;46.562;4.898;2022-08-18T07:48:47;21.70;83.30
7666;DHT22;3875;46.562;4.898;2022-08-18T07:54:20;21.80;83.00
7666;DHT22;3875;46.562;4.898;2022-08-18T07:59:46;21.90;82.80
7666;DHT22;3875;46.562;4.898;2022-08-18T08:07:16;22.10;82.60
7666;DHT22;3875;46.562;4.898;2022-08-18T08:09:51;22.10;82.50
7666;DHT22;3875;46.562;4.898;2022-08-18T08:17:34;22.00;83.50
7666;DHT22;3875;46.562;4.898;2022-08-18T08:20:29;22.00;83.60
7666;DHT22;3875;46.562;4.898;2022-08-18T08:28:34;22.30;82.90
7666;DHT22;3875;46.562;4.898;2022-08-18T08:37:02;22.70;81.90
7666;DHT22;3875;46.562;4.898;2022-08-18T08:39:38;22.80;80.80
7666;DHT22;3875;46.562;4.898;2022-08-18T08:42:10;22.80;81.10
7666;DHT22;3875;46.562;4.898;2022-08-18T08:47:08;23.20;80.80
7666;DHT22;3875;46.562;4.898;2022-08-18T08:49:38;23.70;80.30
7666;DHT22;3875;46.562;4.898;2022-08-18T08:55:01;25.00;77.00
7666;DHT22;3875;46.562;4.898;2022-08-18T08:57:42;25.20;75.40
7666;DHT22;3875;46.562;4.898;2022-08-18T09:00:10;24.90;75.20
7666;DHT22;3875;46.562;4.898;2022-08-18T09:03:52;24.40;75.70
7666;DHT22;3875;46.562;4.898;2022-08-18T09:05:53;24.00;76.80
7666;DHT22;3875;46.562;4.898;2022-08-18T09:16:50;23.70;78.10
7666;DHT22;3875;46.562;4.898;2022-08-18T09:24:50;23.10;78.60
7666;DHT22;3875;46.562;4.898;2022-08-18T09:27:45;22.90;79.30
7666;DHT22;3875;46.562;4.898;2022-08-18T09:33:33;22.80;79.50
7666;DHT22;3875;46.562;4.898;2022-08-18T09:42:10;22.80;80.10
7666;DHT22;3875;46.562;4.898;2022-08-18T09:47:06;22.90;79.50
7666;DHT22;3875;46.562;4.898;2022-08-18T09:49:47;22.90;79.40
7666;DHT22;3875;46.562;4.898;2022-08-18T09:54:52;22.90;79.80
7666;DHT22;3875;46.562;4.898;2022-08-18T09:57:28;22.90;79.70
7666;DHT22;3875;46.562;4.898;2022-08-18T10:00:30;22.90;79.70
7666;DHT22;3875;46.562;4.898;2022-08-18T10:05:27;23.00;79.40
7666;DHT22;3875;46.562;4.898;2022-08-18T10:10:48;23.20;79.20
7666;DHT22;3875;46.562;4.898;2022-08-18T10:19:30;24.10;78.00
7666;DHT22;3875;46.562;4.898;2022-08-18T10:25:06;24.70;75.20
7666;DHT22;3875;46.562;4.898;2022-08-18T10:27:46;25.10;74.30
7666;DHT22;3875;46.562;4.898;2022-08-18T10:33:03;25.30;72.50
7666;DHT22;3875;46.562;4.898;2022-08-18T10:38:23;25.60;71.60
7666;DHT22;3875;46.562;4.898;2022-08-18T10:41:07;25.60;71.90
7666;DHT22;3875;46.562;4.898;2022-08-18T10:43:45;25.80;72.20
7666;DHT22;3875;46.562;4.898;2022-08-18T10:46:22;25.80;69.20
7666;DHT22;3875;46.562;4.898;2022-08-18T10:49:06;25.70;70.50
7666;DHT22;3875;46.562;4.898;2022-08-18T11:00:21;26.50;68.50
7666;DHT22;3875;46.562;4.898;2022-08-18T11:05:41;26.10;66.90
7666;DHT22;3875;46.562;4.898;2022-08-18T11:08:13;26.00;67.70
7666;DHT22;3875;46.562;4.898;2022-08-18T11:10:47;26.10;68.40
7666;DHT22;3875;46.562;4.898;2022-08-18T11:13:34;26.20;68.60
7666;DHT22;3875;46.562;4.898;2022-08-18T11:19:07;25.70;67.40
7666;DHT22;3875;46.562;4.898;2022-08-18T11:24:18;25.30;68.90
7666;DHT22;3875;46.562;4.898;2022-08-18T11:26:54;25.10;69.10
7666;DHT22;3875;46.562;4.898;2022-08-18T11:29:38;25.10;70.20
7666;DHT22;3875;46.562;4.898;2022-08-18T11:34:46;24.70;69.70
7666;DHT22;3875;46.562;4.898;2022-08-18T11:37:28;24.60;70.90
7666;DHT22;3875;46.562;4.898;2022-08-18T11:39:57;24.60;71.40
7666;DHT22;3875;46.562;4.898;2022-08-18T11:42:29;24.50;71.60
7666;DHT22;3875;46.562;4.898;2022-08-18T11:45:17;24.50;72.10
7666;DHT22;3875;46.562;4.898;2022-08-18T12:09:45;26.10;68.60
7666;DHT22;3875;46.562;4.898;2022-08-18T12:15:23;26.10;68.50
7666;DHT22;3875;46.562;4.898;2022-08-18T12:17:49;26.40;68.60
7666;DHT22;3875;46.562;4.898;2022-08-18T12:20:15;26.50;66.90
7666;DHT22;3875;46.562;4.898;2022-08-18T12:22:43;26.40;67.30
7666;DHT22;3875;46.562;4.898;2022-08-18T12:25:12;26.60;67.30
7666;DHT22;3875;46.562;4.898;2022-08-18T12:27:39;26.90;67.60
7666;DHT22;3875;46.562;4.898;2022-08-18T12:30:07;27.00;66.00
7666;DHT22;3875;46.562;4.898;2022-08-18T12:32:34;26.80;66.70
7666;DHT22;3875;46.562;4.898;2022-08-18T12:35:01;26.80;67.20
7666;DHT22;3875;46.562;4.898;2022-08-18T12:37:28;27.00;67.80
7666;DHT22;3875;46.562;4.898;2022-08-18T12:39:55;27.10;66.20
7666;DHT22;3875;46.562;4.898;2022-08-18T12:42:22;27.00;66.60
7666;DHT22;3875;46.562;4.898;2022-08-18T12:44:49;26.80;66.70
7666;DHT22;3875;46.562;4.898;2022-08-18T12:47:20;26.60;67.10
7666;DHT22;3875;46.562;4.898;2022-08-18T12:49:47;26.70;67.00
7666;DHT22;3875;46.562;4.898;2022-08-18T12:52:13;26.70;66.30
7666;DHT22;3875;46.562;4.898;2022-08-18T12:54:40;26.80;67.00
7666;DHT22;3875;46.562;4.898;2022-08-18T12:57:19;27.10;66.50
7666;DHT22;3875;46.562;4.898;2022-08-18T12:59:45;27.20;66.20
7666;DHT22;3875;46.562;4.898;2022-08-18T13:02:11;27.30;65.40
7666;DHT22;3875;46.562;4.898;2022-08-18T13:04:37;27.20;65.30
7666;DHT22;3875;46.562;4.898;2022-08-18T13:07:03;27.30;65.40
7666;DHT22;3875;46.562;4.898;2022-08-18T13:09:32;27.40;65.80
7666;DHT22;3875;46.562;4.898;2022-08-18T13:11:58;27.50;65.30
7666;DHT22;3875;46.562;4.898;2022-08-18T13:14:24;27.60;65.10
7666;DHT22;3875;46.562;4.898;2022-08-18T13:16:49;27.70;63.90
7666;DHT22;3875;46.562;4.898;2022-08-18T13:19:16;27.60;64.70
7666;DHT22;3875;46.562;4.898;2022-08-18T13:21:42;27.50;64.20
7666;DHT22;3875;46.562;4.898;2022-08-18T13:24:08;27.60;64.30
7666;DHT22;3875;46.562;4.898;2022-08-18T13:26:37;27.60;64.30
7666;DHT22;3875;46.562;4.898;2022-08-18T13:29:04;27.40;64.20
7666;DHT22;3875;46.562;4.898;2022-08-18T13:31:30;27.30;64.80
7666;DHT22;3875;46.562;4.898;2022-08-18T13:33:57;27.40;64.70
7666;DHT22;3875;46.562;4.898;2022-08-18T13:36:24;27.50;64.30
7666;DHT22;3875;46.562;4.898;2022-08-18T13:38:52;27.40;64.20
7666;DHT22;3875;46.562;4.898;2022-08-18T13:41:19;27.30;64.70
7666;DHT22;3875;46.562;4.898;2022-08-18T13:43:45;27.40;64.30
7666;DHT22;3875;46.562;4.898;2022-08-18T13:46:15;27.20;64.70
7666;DHT22;3875;46.562;4.898;2022-08-18T13:48:41;27.30;65.10
7666;DHT22;3875;46.562;4.898;2022-08-18T13:51:10;27.60;65.50
7666;DHT22;3875;46.562;4.898;2022-08-18T13:53:39;27.80;64.70
7666;DHT22;3875;46.562;4.898;2022-08-18T13:56:05;27.90;63.80
7666;DHT22;3875;46.562;4.898;2022-08-18T13:58:31;27.90;64.20
7666;DHT22;3875;46.562;4.898;2022-08-18T14:01:03;28.10;63.70
7666;DHT22;3875;46.562;4.898;2022-08-18T14:03:31;28.10;63.60
7666;DHT22;3875;46.562;4.898;2022-08-18T14:05:57;28.10;63.40
7666;DHT22;3875;46.562;4.898;2022-08-18T14:08:25;27.90;62.90
7666;DHT22;3875;46.562;4.898;2022-08-18T14:10:57;27.70;63.40
7666;DHT22;3875;46.562;4.898;2022-08-18T14:13:23;27.60;64.10
7666;DHT22;3875;46.562;4.898;2022-08-18T14:15:51;27.70;64.10
7666;DHT22;3875;46.562;4.898;2022-08-18T14:18:18;27.80;63.50
7666;DHT22;3875;46.562;4.898;2022-08-18T14:23:10;27.80;63.70
7666;DHT22;3875;46.562;4.898;2022-08-18T14:25:54;27.90;63.60
7666;DHT22;3875;46.562;4.898;2022-08-18T14:28:38;27.80;63.30
7666;DHT22;3875;46.562;4.898;2022-08-18T14:31:07;27.80;63.30
7666;DHT22;3875;46.562;4.898;2022-08-18T14:33:33;27.70;63.20
7666;DHT22;3875;46.562;4.898;2022-08-18T14:36:00;27.70;63.80
7666;DHT22;3875;46.562;4.898;2022-08-18T14:38:25;27.60;63.60
7666;DHT22;3875;46.562;4.898;2022-08-18T14:40:51;27.50;63.00
7666;DHT22;3875;46.562;4.898;2022-08-18T14:43:19;27.50;63.20
7666;DHT22;3875;46.562;4.898;2022-08-18T14:45:46;27.50;63.00
7666;DHT22;3875;46.562;4.898;2022-08-18T14:48:18;27.50;63.60
7666;DHT22;3875;46.562;4.898;2022-08-18T14:50:46;27.50;62.50
7666;DHT22;3875;46.562;4.898;2022-08-18T14:53:13;27.40;62.80
7666;DHT22;3875;46.562;4.898;2022-08-18T14:55:39;27.40;62.00
7666;DHT22;3875;46.562;4.898;2022-08-18T14:58:05;27.30;62.10
7666;DHT22;3875;46.562;4.898;2022-08-18T15:00:33;27.40;62.30
7666;DHT22;3875;46.562;4.898;2022-08-18T15:03:00;27.40;62.50
7666;DHT22;3875;46.562;4.898;2022-08-18T15:05:26;27.30;62.60
7666;DHT22;3875;46.562;4.898;2022-08-18T15:07:57;27.30;62.60
7666;DHT22;3875;46.562;4.898;2022-08-18T15:10:23;27.30;63.20
7666;DHT22;3875;46.562;4.898;2022-08-18T15:12:49;27.10;62.30
7666;DHT22;3875;46.562;4.898;2022-08-18T15:15:15;27.00;62.90
7666;DHT22;3875;46.562;4.898;2022-08-18T15:17:41;26.90;62.60
7666;DHT22;3875;46.562;4.898;2022-08-18T15:20:09;26.90;63.70
7666;DHT22;3875;46.562;4.898;2022-08-18T15:22:41;26.80;63.90
7666;DHT22;3875;46.562;4.898;2022-08-18T15:25:26;26.90;63.70
7666;DHT22;3875;46.562;4.898;2022-08-18T15:28:10;26.80;63.70
7666;DHT22;3875;46.562;4.898;2022-08-18T15:30:37;26.80;64.20
7666;DHT22;3875;46.562;4.898;2022-08-18T15:33:03;26.80;64.50
7666;DHT22;3875;46.562;4.898;2022-08-18T15:35:30;26.90;64.50
7666;DHT22;3875;46.562;4.898;2022-08-18T15:37:56;26.80;64.20
7666;DHT22;3875;46.562;4.898;2022-08-18T15:40:24;26.70;64.50
7666;DHT22;3875;46.562;4.898;2022-08-18T15:42:56;26.70;64.90
7666;DHT22;3875;46.562;4.898;2022-08-18T15:45:27;26.70;64.70
7666;DHT22;3875;46.562;4.898;2022-08-18T15:47:53;26.70;64.80
7666;DHT22;3875;46.562;4.898;2022-08-18T15:50:21;26.70;64.70
7666;DHT22;3875;46.562;4.898;2022-08-18T15:52:54;26.60;64.90
7666;DHT22;3875;46.562;4.898;2022-08-18T15:55:21;26.60;65.00
7666;DHT22;3875;46.562;4.898;2022-08-18T15:57:51;26.50;65.40
7666;DHT22;3875;46.562;4.898;2022-08-18T16:00:17;26.50;65.80
7666;DHT22;3875;46.562;4.898;2022-08-18T16:02:56;26.40;65.70
7666;DHT22;3875;46.562;4.898;2022-08-18T16:05:25;26.40;66.20
7666;DHT22;3875;46.562;4.898;2022-08-18T16:07:52;26.40;66.40
7666;DHT22;3875;46.562;4.898;2022-08-18T16:10:19;26.50;66.20
7666;DHT22;3875;46.562;4.898;2022-08-18T16:12:46;26.40;66.20
7666;DHT22;3875;46.562;4.898;2022-08-18T16:15:14;26.40;66.10
7666;DHT22;3875;46.562;4.898;2022-08-18T16:17:40;26.30;66.10
7666;DHT22;3875;46.562;4.898;2022-08-18T16:20:06;26.30;66.40
7666;DHT22;3875;46.562;4.898;2022-08-18T16:22:34;26.30;66.40
7666;DHT22;3875;46.562;4.898;2022-08-18T16:25:04;26.30;66.80
7666;DHT22;3875;46.562;4.898;2022-08-18T16:27:33;26.30;66.70
7666;DHT22;3875;46.562;4.898;2022-08-18T16:29:59;26.20;67.00
7666;DHT22;3875;46.562;4.898;2022-08-18T16:32:25;26.20;67.10
7666;DHT22;3875;46.562;4.898;2022-08-18T16:34:51;26.10;67.20
7666;DHT22;3875;46.562;4.898;2022-08-18T16:37:17;26.10;67.40
7666;DHT22;3875;46.562;4.898;2022-08-18T16:39:43;26.00;67.50
7666;DHT22;3875;46.562;4.898;2022-08-18T16:42:09;26.00;67.60
7666;DHT22;3875;46.562;4.898;2022-08-18T16:44:37;26.00;67.90
7666;DHT22;3875;46.562;4.898;2022-08-18T16:47:04;26.00;68.00
7666;DHT22;3875;46.562;4.898;2022-08-18T16:49:30;26.00;67.90
7666;DHT22;3875;46.562;4.898;2022-08-18T16:51:58;25.90;68.00
7666;DHT22;3875;46.562;4.898;2022-08-18T16:54:27;25.80;68.50
7666;DHT22;3875;46.562;4.898;2022-08-18T16:56:52;25.60;69.40
7666;DHT22;3875;46.562;4.898;2022-08-18T16:59:18;25.10;71.10
7666;DHT22;3875;46.562;4.898;2022-08-18T17:02:02;24.20;75.30
7666;DHT22;3875;46.562;4.898;2022-08-18T17:04:47;23.40;77.30
7666;DHT22;3875;46.562;4.898;2022-08-18T17:07:12;22.90;78.50
7666;DHT22;3875;46.562;4.898;2022-08-18T17:09:38;22.70;78.90
7666;DHT22;3875;46.562;4.898;2022-08-18T17:12:04;22.70;79.50
7666;DHT22;3875;46.562;4.898;2022-08-18T17:14:31;22.60;79.80
7666;DHT22;3875;46.562;4.898;2022-08-18T17:16:57;22.50;79.80
7666;DHT22;3875;46.562;4.898;2022-08-18T17:19:29;22.50;80.20
7666;DHT22;3875;46.562;4.898;2022-08-18T17:21:56;22.40;80.10
7666;DHT22;3875;46.562;4.898;2022-08-18T17:24:22;22.30;79.80
7666;DHT22;3875;46.562;4.898;2022-08-18T17:32:05;22.40;80.30
7666;DHT22;3875;46.562;4.898;2022-08-18T17:34:36;22.50;80.10
7666;DHT22;3875;46.562;4.898;2022-08-18T17:37:03;22.50;80.80
7666;DHT22;3875;46.562;4.898;2022-08-18T17:39:45;22.40;81.00
7666;DHT22;3875;46.562;4.898;2022-08-18T17:42:14;22.50;81.10
7666;DHT22;3875;46.562;4.898;2022-08-18T17:44:56;22.40;81.10
7666;DHT22;3875;46.562;4.898;2022-08-18T17:47:32;22.40;81.30
7666;DHT22;3875;46.562;4.898;2022-08-18T18:27:26;22.40;81.10
7666;DHT22;3875;46.562;4.898;2022-08-18T18:29:56;22.40;81.40
7666;DHT22;3875;46.562;4.898;2022-08-18T18:32:47;22.30;81.10
7666;DHT22;3875;46.562;4.898;2022-08-18T18:38:00;22.30;81.30
7666;DHT22;3875;46.562;4.898;2022-08-18T18:49:12;22.20;81.40
7666;DHT22;3875;46.562;4.898;2022-08-18T18:54:44;21.80;82.20
7666;DHT22;3875;46.562;4.898;2022-08-18T18:57:32;21.80;82.10
7666;DHT22;3875;46.562;4.898;2022-08-18T19:00:11;21.80;82.00
7666;DHT22;3875;46.562;4.898;2022-08-18T19:14:00;21.40;83.30
7666;DHT22;3875;46.562;4.898;2022-08-18T19:16:34;21.50;83.00
7666;DHT22;3875;46.562;4.898;2022-08-18T19:19:16;21.50;83.00
7666;DHT22;3875;46.562;4.898;2022-08-18T19:21:46;21.40;83.50
7666;DHT22;3875;46.562;4.898;2022-08-18T19:24:19;21.30;83.70
7666;DHT22;3875;46.562;4.898;2022-08-18T19:26:51;21.40;83.70
7666;DHT22;3875;46.562;4.898;2022-08-18T19:29:22;21.30;83.70
7666;DHT22;3875;46.562;4.898;2022-08-18T19:32:00;21.40;83.70
7666;DHT22;3875;46.562;4.898;2022-08-18T19:34:35;21.30;84.00
7666;DHT22;3875;46.562;4.898;2022-08-18T19:40:09;21.30;84.10
7666;DHT22;3875;46.562;4.898;2022-08-18T19:42:58;21.30;84.20
7666;DHT22;3875;46.562;4.898;2022-08-18T19:45:55;21.30;84.30
7666;DHT22;3875;46.562;4.898;2022-08-18T19:51:07;21.20;84.40
7666;DHT22;3875;46.562;4.898;2022-08-18T19:54:15;21.30;84.20
7666;DHT22;3875;46.562;4.898;2022-08-18T19:56:51;21.30;84.10
7666;DHT22;3875;46.562;4.898;2022-08-18T20:10:31;21.40;83.70
7666;DHT22;3875;46.562;4.898;2022-08-18T20:13:34;21.30;84.00
7666;DHT22;3875;46.562;4.898;2022-08-18T20:18:34;21.20;84.30
7666;DHT22;3875;46.562;4.898;2022-08-18T20:24:13;21.10;85.30
7666;DHT22;3875;46.562;4.898;2022-08-18T20:26:48;20.90;86.00
7666;DHT22;3875;46.562;4.898;2022-08-18T20:29:39;20.80;86.30
7666;DHT22;3875;46.562;4.898;2022-08-18T20:32:28;20.90;86.00
7666;DHT22;3875;46.562;4.898;2022-08-18T20:35:24;20.90;86.30
7666;DHT22;3875;46.562;4.898;2022-08-18T20:37:51;20.90;86.40
7666;DHT22;3875;46.562;4.898;2022-08-18T20:40:43;20.80;86.60
7666;DHT22;3875;46.562;4.898;2022-08-18T20:43:31;20.80;86.70
7666;DHT22;3875;46.562;4.898;2022-08-18T20:49:02;20.60;87.10